createdAt,value
2022-08-05T00:00:16.094Z,22.77
2022-08-05T00:02:50.914Z,22.71
2022-08-05T00:06:01.666Z,22.60
2022-08-05T00:08:34.229Z,22.54
2022-08-05T00:11:00.582Z,22.50
2022-08-05T00:13:39.125Z,22.50
2022-08-05T00:16:09.541Z,22.48
2022-08-05T00:18:39.764Z,22.43
2022-08-05T00:21:08.242Z,22.40
2022-08-05T00:23:46.384Z,22.43
2022-08-05T00:26:20.548Z,22.43
2022-08-05T00:28:47.214Z,22.45
2022-08-05T00:31:16.108Z,22.41
2022-08-05T00:34:53.219Z,22.42
2022-08-05T00:37:12.405Z,22.43
2022-08-05T00:39:16.142Z,22.42
2022-08-05T00:41:55.337Z,22.44
2022-08-05T00:44:30.446Z,22.43
2022-08-05T00:47:02.196Z,22.39
2022-08-05T00:49:51.506Z,22.47
2022-08-05T00:52:28.384Z,22.41
2022-08-05T00:54:55.969Z,22.36
2022-08-05T00:57:25.204Z,22.41
2022-08-05T00:59:58.382Z,22.35
2022-08-05T01:02:25.088Z,22.38
2022-08-05T01:04:51.818Z,22.36
2022-08-05T01:07:18.551Z,22.33
2022-08-05T01:09:45.282Z,22.33
2022-08-05T01:12:25.086Z,22.31
2022-08-05T01:15:35.037Z,22.29
2022-08-05T01:18:05.182Z,22.04
2022-08-05T01:21:01.842Z,22.08
2022-08-05T01:23:57.957Z,22.15
2022-08-05T01:26:50.904Z,22.18
2022-08-05T01:29:24.692Z,22.17
2022-08-05T01:31:55.104Z,22.12
2022-08-05T01:34:28.327Z,22.04
2022-08-05T01:37:11.049Z,22.06
2022-08-05T01:39:58.748Z,22.04
2022-08-05T01:42:27.854Z,22.00
2022-08-05T01:44:59.209Z,21.88
2022-08-05T01:47:30.557Z,21.83
2022-08-05T01:50:15.240Z,21.76
2022-08-05T01:52:49.836Z,21.76
2022-08-05T01:55:20.364Z,21.71
2022-08-05T01:58:15.376Z,21.70
2022-08-05T02:00:38.559Z,21.68
2022-08-05T02:03:24.066Z,21.70
2022-08-05T02:05:53.693Z,21.65
2022-08-05T02:08:30.904Z,21.56
2022-08-05T02:11:12.033Z,21.48
2022-08-05T02:13:53.111Z,21.39
2022-08-05T02:16:54.585Z,21.25
2022-08-05T02:19:27.370Z,21.05
2022-08-05T02:22:27.007Z,20.80
2022-08-05T02:25:12.625Z,20.80
2022-08-05T02:27:58.281Z,20.83
2022-08-05T02:30:35.401Z,20.95
2022-08-05T02:33:03.532Z,21.07
2022-08-05T02:35:38.587Z,21.25
2022-08-05T02:38:19.377Z,21.38
2022-08-05T02:40:46.930Z,21.39
2022-08-05T02:43:16.977Z,21.35
2022-08-05T02:45:52.382Z,21.40
2022-08-05T02:48:29.112Z,21.48
2022-08-05T02:51:00.120Z,21.52
2022-08-05T02:53:39.191Z,21.57
2022-08-05T02:56:09.462Z,21.55
2022-08-05T02:58:43.528Z,21.72
2022-08-05T03:01:20.563Z,21.81
2022-08-05T03:04:03.383Z,21.99
2022-08-05T03:06:55.668Z,22.10
2022-08-05T03:09:27.212Z,22.19
2022-08-05T03:12:05.220Z,22.25
2022-08-05T03:14:31.851Z,22.24
2022-08-05T03:16:59.153Z,22.17
2022-08-05T03:19:33.967Z,22.28
2022-08-05T03:22:03.242Z,22.30
2022-08-05T03:24:32.343Z,22.30
2022-08-05T03:27:00.807Z,22.26
2022-08-05T03:29:45.256Z,22.22
2022-08-05T03:32:19.577Z,22.25
2022-08-05T03:34:50.996Z,22.25
2022-08-05T03:37:19.161Z,22.23
2022-08-05T03:39:58.746Z,22.21
2022-08-05T03:42:27.044Z,22.14
2022-08-05T03:44:55.773Z,22.05
2022-08-05T03:47:24.143Z,22.02
2022-08-05T03:49:52.474Z,21.93
2022-08-05T03:52:36.992Z,21.87
2022-08-05T03:56:05.391Z,21.81
2022-08-05T03:58:12.598Z,21.76
2022-08-05T04:00:41.972Z,21.76
2022-08-05T04:03:26.670Z,21.77
2022-08-05T04:05:57.924Z,21.75
2022-08-05T04:08:35.328Z,21.64
2022-08-05T04:11:05.193Z,21.64
2022-08-05T04:13:49.676Z,21.55
2022-08-05T04:16:24.191Z,21.57
2022-08-05T04:18:54.489Z,21.50
2022-08-05T04:22:05.711Z,21.57
2022-08-05T04:24:18.754Z,21.63
2022-08-05T04:26:46.971Z,21.65
2022-08-05T04:29:14.299Z,21.69
2022-08-05T04:31:41.290Z,21.69
2022-08-05T04:34:31.977Z,21.70
2022-08-05T04:36:56.506Z,21.74
2022-08-05T04:39:23.552Z,21.78
2022-08-05T04:41:51.395Z,21.73
2022-08-05T04:44:29.085Z,21.73
2022-08-05T04:46:58.905Z,21.77
2022-08-05T04:50:00.956Z,21.83
2022-08-05T04:52:13.697Z,21.79
2022-08-05T04:54:42.028Z,21.83
2022-08-05T04:57:08.685Z,21.81
2022-08-05T04:59:40.638Z,21.86
2022-08-05T05:02:37.507Z,21.86
2022-08-05T05:05:02.281Z,21.84
2022-08-05T05:07:31.929Z,21.84
2022-08-05T05:09:59.708Z,21.81
2022-08-05T05:12:29.317Z,21.83
2022-08-05T05:14:55.995Z,21.89
2022-08-05T05:17:24.553Z,21.88
2022-08-05T05:19:56.615Z,21.98
2022-08-05T05:22:26.724Z,21.98
2022-08-05T05:24:59.817Z,21.98
2022-08-05T05:27:41.506Z,22.07
2022-08-05T05:30:28.713Z,22.02
2022-08-05T05:33:00.782Z,22.02
2022-08-05T05:35:37.698Z,22.03
2022-08-05T05:38:09.242Z,22.07
2022-08-05T05:40:43.837Z,22.03
2022-08-05T05:43:22.302Z,22.11
2022-08-05T05:46:04.007Z,22.15
2022-08-05T05:48:32.176Z,22.23
2022-08-05T05:51:15.106Z,22.27
2022-08-05T05:53:53.992Z,22.36
2022-08-05T05:56:32.965Z,22.36
2022-08-05T05:59:07.001Z,22.38
2022-08-05T06:01:37.337Z,22.41
2022-08-05T06:04:14.541Z,22.37
2022-08-05T06:06:42.986Z,22.35
2022-08-05T06:09:17.710Z,22.33
2022-08-05T06:12:01.852Z,22.35
2022-08-05T06:14:33.395Z,22.37
2022-08-05T06:17:22.388Z,22.34
2022-08-05T06:19:56.621Z,22.43
2022-08-05T06:22:33.313Z,22.55
2022-08-05T06:25:01.111Z,22.86
2022-08-05T06:28:11.537Z,23.17
2022-08-05T06:30:34.422Z,22.93
2022-08-05T06:33:01.468Z,22.86
2022-08-05T06:36:08.056Z,22.77
2022-08-05T06:38:14.930Z,23.14
2022-08-05T06:40:44.697Z,23.50
2022-08-05T06:43:58.903Z,23.81
2022-08-05T06:46:04.007Z,24.05
2022-08-05T06:48:55.427Z,24.48
2022-08-05T06:51:29.543Z,24.67
2022-08-05T06:53:59.026Z,24.78
2022-08-05T06:56:27.029Z,24.90
2022-08-05T06:58:54.916Z,25.09
2022-08-05T07:01:21.731Z,25.35
2022-08-05T07:03:49.742Z,25.53
2022-08-05T07:06:17.510Z,25.79
2022-08-05T07:08:52.049Z,26.02
2022-08-05T07:11:25.259Z,26.42
2022-08-05T07:14:20.319Z,26.71
2022-08-05T07:17:59.946Z,26.96
2022-08-05T07:20:31.427Z,27.27
2022-08-05T07:22:33.785Z,27.40
2022-08-05T07:25:22.717Z,27.33
2022-08-05T07:27:58.346Z,27.54
2022-08-05T07:30:34.771Z,27.28
2022-08-05T07:33:10.408Z,26.71
2022-08-05T07:36:02.248Z,26.12
2022-08-05T07:38:33.910Z,25.95
2022-08-05T07:42:07.277Z,25.91
2022-08-05T07:43:58.285Z,26.04
2022-08-05T07:46:30.962Z,26.50
2022-08-05T07:49:01.797Z,26.70
2022-08-05T07:51:37.439Z,26.78
2022-08-05T07:54:08.484Z,27.35
2022-08-05T07:57:00.123Z,27.66
2022-08-05T07:59:38.808Z,27.67
2022-08-05T08:02:17.013Z,27.72
2022-08-05T08:04:49.271Z,27.66
2022-08-05T08:07:22.236Z,27.88
2022-08-05T08:09:52.102Z,28.28
2022-08-05T08:12:27.377Z,28.36
2022-08-05T08:15:02.468Z,28.31
2022-08-05T08:17:31.574Z,28.44
2022-08-05T08:20:42.675Z,28.73
2022-08-05T08:22:55.605Z,28.78
2022-08-05T08:25:26.437Z,28.77
2022-08-05T08:27:54.999Z,28.62
2022-08-05T08:30:32.803Z,28.78
2022-08-05T08:33:13.719Z,28.90
2022-08-05T08:35:52.771Z,29.14
2022-08-05T08:38:35.876Z,28.91
2022-08-05T08:41:10.156Z,29.01
2022-08-05T08:45:19.346Z,29.07
2022-08-05T08:46:31.243Z,28.86
2022-08-05T08:49:08.289Z,29.20
2022-08-05T08:52:05.796Z,29.20
2022-08-05T08:54:42.132Z,29.07
2022-08-05T08:57:11.211Z,29.14
2022-08-05T08:59:38.627Z,29.30
2022-08-05T09:02:09.034Z,29.51
2022-08-05T09:04:57.922Z,29.44
2022-08-05T09:07:28.938Z,29.49
2022-08-05T09:10:06.641Z,29.93
2022-08-05T09:12:34.839Z,30.31
2022-08-05T09:15:06.369Z,30.51
2022-08-05T09:17:41.354Z,30.70
2022-08-05T09:20:11.667Z,30.49
2022-08-05T09:23:05.063Z,30.28
2022-08-05T09:26:02.841Z,30.72
2022-08-05T09:28:24.449Z,30.93
2022-08-05T09:31:22.230Z,31.02
2022-08-05T09:34:10.310Z,30.97
2022-08-05T09:36:55.228Z,30.97
2022-08-05T09:39:39.441Z,31.42
2022-08-05T09:42:23.532Z,31.57
2022-08-05T09:44:56.369Z,31.57
2022-08-05T09:47:26.070Z,31.84
2022-08-05T09:50:01.003Z,31.94
2022-08-05T09:52:34.505Z,32.03
2022-08-05T09:55:55.107Z,32.32
2022-08-05T09:57:49.368Z,32.59
2022-08-05T10:00:26.082Z,32.87
2022-08-05T10:02:58.561Z,32.91
2022-08-05T10:05:33.012Z,33.10
2022-08-05T10:08:35.913Z,33.58
2022-08-05T10:10:54.144Z,33.03
2022-08-05T10:13:47.476Z,32.36
2022-08-05T10:16:41.721Z,31.66
2022-08-05T10:19:23.836Z,31.37
2022-08-05T10:21:59.152Z,31.05
2022-08-05T10:24:27.163Z,30.71
2022-08-05T10:26:56.386Z,30.46
2022-08-05T10:30:06.419Z,30.22
2022-08-05T10:32:52.512Z,29.95
2022-08-05T10:35:03.948Z,29.85
2022-08-05T10:37:40.233Z,29.87
2022-08-05T10:40:52.085Z,29.97
2022-08-05T10:43:57.488Z,29.86
2022-08-05T10:46:54.354Z,29.76
2022-08-05T10:49:26.915Z,29.76
2022-08-05T10:52:03.311Z,29.73
2022-08-05T10:55:02.141Z,29.99
2022-08-05T10:57:32.446Z,30.23
2022-08-05T11:00:20.674Z,30.65
2022-08-05T11:03:23.312Z,30.82
2022-08-05T11:06:15.692Z,30.85
2022-08-05T11:09:16.412Z,31.24
2022-08-05T11:11:53.478Z,31.30
2022-08-05T11:17:57.948Z,31.77
2022-08-05T11:20:41.864Z,32.40
2022-08-05T11:24:02.832Z,32.97
2022-08-05T11:26:28.129Z,33.01
2022-08-05T11:29:12.245Z,33.08
2022-08-05T11:31:57.004Z,33.13
2022-08-05T11:34:51.303Z,33.17
2022-08-05T11:38:37.442Z,33.56
2022-08-05T11:41:13.929Z,33.37
2022-08-05T11:44:05.544Z,33.69
2022-08-05T11:46:34.972Z,33.66
2022-08-05T11:49:03.168Z,33.44
2022-08-05T11:51:44.707Z,33.58
2022-08-05T11:54:32.829Z,33.88
2022-08-05T11:57:08.338Z,34.09
2022-08-05T11:59:50.842Z,34.07
2022-08-05T12:02:30.334Z,33.66
2022-08-05T12:05:07.710Z,33.35
2022-08-05T12:08:08.963Z,33.36
2022-08-05T12:10:43.110Z,33.20
2022-08-05T12:13:27.899Z,32.75
2022-08-05T12:16:19.425Z,32.88
2022-08-05T12:18:52.766Z,33.00
2022-08-05T12:21:30.021Z,32.95
2022-08-05T12:24:08.941Z,33.10
2022-08-05T12:26:39.670Z,33.24
2022-08-05T12:29:22.542Z,33.18
2022-08-05T12:31:58.585Z,32.82
2022-08-05T12:34:31.614Z,32.78
2022-08-05T12:37:03.482Z,32.70
2022-08-05T12:39:37.440Z,33.19
2022-08-05T12:42:14.280Z,33.06
2022-08-05T12:44:43.204Z,32.56
2022-08-05T12:47:12.738Z,32.81
2022-08-05T12:50:04.097Z,33.52
2022-08-05T12:52:39.468Z,33.62
2022-08-05T12:55:22.174Z,33.89
2022-08-05T12:58:52.568Z,34.51
2022-08-05T13:02:01.592Z,34.90
2022-08-05T13:03:32.564Z,34.58
2022-08-05T13:06:01.067Z,34.40
2022-08-05T13:08:32.379Z,34.75
2022-08-05T13:11:02.659Z,34.87
2022-08-05T13:14:04.904Z,34.39
2022-08-05T13:16:20.326Z,34.05
2022-08-05T13:18:51.618Z,34.24
2022-08-05T13:21:18.294Z,34.16
2022-08-05T13:23:50.940Z,34.09
2022-08-05T13:26:21.810Z,34.13
2022-08-05T13:28:56.743Z,34.08
2022-08-05T13:32:04.569Z,34.11
2022-08-05T13:34:23.364Z,34.30
2022-08-05T13:36:53.981Z,34.15
2022-08-05T13:39:24.320Z,34.17
2022-08-05T13:42:14.596Z,34.46
2022-08-05T13:44:46.194Z,34.30
2022-08-05T13:48:08.252Z,33.60
2022-08-05T13:50:06.584Z,33.08
2022-08-05T13:52:36.395Z,33.20
2022-08-05T13:55:07.595Z,33.23
2022-08-05T13:57:51.355Z,33.44
2022-08-05T14:00:27.233Z,33.34
2022-08-05T14:02:57.787Z,32.59
2022-08-05T14:05:48.046Z,32.60
2022-08-05T14:08:20.441Z,32.73
2022-08-05T14:10:48.826Z,33.03
2022-08-05T14:13:16.167Z,33.39
2022-08-05T14:16:07.195Z,33.58
2022-08-05T14:18:30.151Z,33.72
2022-08-05T14:20:56.790Z,33.96
2022-08-05T14:23:25.707Z,34.08
2022-08-05T14:25:58.650Z,33.97
2022-08-05T14:28:30.433Z,33.90
2022-08-05T14:30:58.872Z,33.89
2022-08-05T14:33:25.704Z,33.90
2022-08-05T14:35:54.277Z,33.74
2022-08-05T14:38:31.651Z,33.72
2022-08-05T14:41:00.342Z,33.72
2022-08-05T14:43:59.272Z,33.84
2022-08-05T14:46:13.962Z,33.29
2022-08-05T14:48:40.777Z,32.62
2022-08-05T14:51:08.556Z,32.30
2022-08-05T14:53:44.085Z,32.12
2022-08-05T14:56:11.995Z,32.35
2022-08-05T14:58:47.546Z,32.24
2022-08-05T15:01:24.502Z,31.98
2022-08-05T15:04:11.558Z,31.81
2022-08-05T15:06:38.869Z,31.86
2022-08-05T15:09:07.789Z,31.80
2022-08-05T15:11:50.912Z,31.67
2022-08-05T15:14:33.314Z,31.78
2022-08-05T15:17:03.931Z,31.98
2022-08-05T15:19:31.673Z,31.85
2022-08-05T15:22:01.316Z,31.67
2022-08-05T15:24:29.043Z,31.62
2022-08-05T15:26:57.046Z,31.61
2022-08-05T15:29:29.812Z,31.48
2022-08-05T15:31:57.733Z,31.14
2022-08-05T15:34:31.844Z,30.83
2022-08-05T15:37:02.325Z,30.50
2022-08-05T15:40:59.732Z,30.30
2022-08-05T15:42:54.664Z,30.16
2022-08-05T15:45:06.163Z,30.05
2022-08-05T15:47:35.784Z,29.95
2022-08-05T15:50:03.654Z,29.89
2022-08-05T15:52:52.599Z,29.77
2022-08-05T15:55:19.500Z,29.81
2022-08-05T15:57:52.383Z,29.75
2022-08-05T16:00:32.721Z,29.70
2022-08-05T16:03:06.065Z,29.60
2022-08-05T16:05:32.768Z,29.55
2022-08-05T16:08:00.044Z,29.55
2022-08-05T16:10:27.171Z,29.52
2022-08-05T16:12:56.053Z,29.52
2022-08-05T16:15:23.573Z,29.52
2022-08-05T16:17:57.928Z,29.56
2022-08-05T16:20:25.883Z,29.51
2022-08-05T16:22:54.782Z,29.51
2022-08-05T16:25:33.853Z,29.51
2022-08-05T16:28:06.487Z,29.45
2022-08-05T16:30:36.885Z,29.39
2022-08-05T16:33:03.716Z,29.40
2022-08-05T16:35:32.090Z,29.36
2022-08-05T16:38:13.615Z,29.31
2022-08-05T16:40:47.665Z,29.30
2022-08-05T16:43:19.031Z,29.25
2022-08-05T16:46:04.915Z,29.22
2022-08-05T16:48:35.086Z,29.11
2022-08-05T16:51:03.952Z,29.04
2022-08-05T16:54:04.019Z,29.03
2022-08-05T16:56:26.613Z,29.01
2022-08-05T16:58:54.096Z,29.04
2022-08-05T17:01:20.831Z,28.99
2022-08-05T17:03:47.602Z,28.92
2022-08-05T17:06:16.354Z,28.87
2022-08-05T17:08:53.061Z,28.82
2022-08-05T17:11:25.648Z,28.67
2022-08-05T17:14:05.320Z,28.61
2022-08-05T17:16:37.738Z,28.55
2022-08-05T17:19:07.887Z,28.51
2022-08-05T17:21:37.763Z,28.41
2022-08-05T17:24:28.114Z,28.39
2022-08-05T17:26:56.749Z,28.30
2022-08-05T17:29:33.607Z,28.17
2022-08-05T17:32:11.304Z,28.10
2022-08-05T17:34:39.135Z,28.04
2022-08-05T17:37:37.710Z,27.97
2022-08-05T17:39:55.814Z,27.76
2022-08-05T17:42:25.833Z,27.65
2022-08-05T17:44:56.778Z,27.45
2022-08-05T17:47:23.680Z,27.34
2022-08-05T17:50:04.146Z,27.16
2022-08-05T17:52:52.606Z,27.01
2022-08-05T17:55:22.869Z,27.03
2022-08-05T17:58:02.208Z,27.06
2022-08-05T18:00:30.143Z,27.00
2022-08-05T18:02:57.189Z,26.95
2022-08-05T18:05:28.095Z,26.87
2022-08-05T18:07:56.766Z,26.77
2022-08-05T18:10:23.933Z,26.70
2022-08-05T18:12:51.180Z,26.73
2022-08-05T18:15:18.152Z,26.55
2022-08-05T18:18:00.709Z,26.39
2022-08-05T18:20:31.918Z,26.24
2022-08-05T18:23:09.335Z,26.23
2022-08-05T18:25:45.319Z,26.06
2022-08-05T18:28:17.656Z,25.94
2022-08-05T18:30:51.142Z,25.71
2022-08-05T18:33:22.984Z,25.73
2022-08-05T18:36:04.911Z,25.72
2022-08-05T18:38:36.155Z,25.64
2022-08-05T18:41:57.003Z,25.67
2022-08-05T18:43:52.145Z,25.72
2022-08-05T18:46:20.248Z,25.61
2022-08-05T18:48:51.840Z,25.48
2022-08-05T18:52:05.669Z,25.41
2022-08-05T18:54:30.926Z,25.36
2022-08-05T18:57:01.867Z,25.31
2022-08-05T18:59:42.730Z,25.22
2022-08-05T19:02:27.142Z,25.21
2022-08-05T19:05:02.338Z,25.03
2022-08-05T19:07:55.327Z,24.99
2022-08-05T19:10:26.644Z,24.93
2022-08-05T19:12:56.156Z,24.93
2022-08-05T19:16:00.064Z,24.90
2022-08-05T19:18:13.552Z,24.89
2022-08-05T19:20:48.980Z,24.78
2022-08-05T19:24:04.273Z,24.74
2022-08-05T19:26:03.329Z,24.75
2022-08-05T19:28:35.009Z,24.74
2022-08-05T19:31:05.749Z,24.68
2022-08-05T19:33:36.819Z,24.64
2022-08-05T19:36:09.046Z,24.50
2022-08-05T19:38:36.819Z,24.35
2022-08-05T19:41:08.925Z,24.33
2022-08-05T19:44:05.653Z,24.33
2022-08-05T19:46:30.228Z,24.20
2022-08-05T19:49:02.878Z,24.12
2022-08-05T19:52:04.226Z,24.11
2022-08-05T19:54:22.008Z,24.17
2022-08-05T19:56:55.249Z,24.12
2022-08-05T19:59:54.890Z,24.08
2022-08-05T20:02:08.677Z,24.09
2022-08-05T20:04:37.885Z,24.07
2022-08-05T20:07:13.056Z,23.93
2022-08-05T20:09:54.726Z,23.96
2022-08-05T20:12:24.528Z,23.88
2022-08-05T20:14:53.174Z,23.83
2022-08-05T20:17:23.970Z,23.83
2022-08-05T20:19:56.879Z,23.81
2022-08-05T20:22:26.926Z,23.78
2022-08-05T20:24:55.100Z,23.74
2022-08-05T20:27:26.677Z,23.70
2022-08-05T20:29:57.947Z,23.60
2022-08-05T20:32:26.572Z,23.62
2022-08-05T20:34:53.705Z,23.58
2022-08-05T20:38:04.989Z,23.51
2022-08-05T20:40:07.823Z,23.41
2022-08-05T20:42:34.732Z,23.30
2022-08-05T20:45:02.787Z,23.20
2022-08-05T20:47:31.688Z,23.13
2022-08-05T20:49:59.622Z,23.09
2022-08-05T20:52:29.023Z,23.05
2022-08-05T20:55:54.214Z,22.99
2022-08-05T20:57:44.492Z,22.88
2022-08-05T21:00:35.092Z,22.89
2022-08-05T21:03:06.169Z,22.94
2022-08-05T21:05:47.740Z,22.93
2022-08-05T21:08:21.354Z,22.83
2022-08-05T21:10:54.918Z,22.88
2022-08-05T21:13:37.837Z,22.90
2022-08-05T21:16:12.035Z,22.73
2022-08-05T21:18:38.752Z,22.69
2022-08-05T21:21:12.031Z,22.67
2022-08-05T21:23:39.050Z,22.70
2022-08-05T21:26:08.167Z,22.56
2022-08-05T21:28:40.263Z,22.55
2022-08-05T21:31:14.781Z,22.54
2022-08-05T21:33:43.339Z,22.53
2022-08-05T21:36:19.053Z,22.57
2022-08-05T21:38:54.845Z,22.53
2022-08-05T21:41:21.630Z,22.58
2022-08-05T21:43:50.951Z,22.55
2022-08-05T21:46:28.687Z,22.37
2022-08-05T21:48:56.730Z,22.33
2022-08-05T21:52:16.144Z,22.32
2022-08-05T21:54:10.498Z,22.22
2022-08-05T21:56:37.231Z,22.17
2022-08-05T21:59:23.845Z,22.12
2022-08-05T22:01:54.467Z,22.02
2022-08-05T22:04:25.472Z,21.90
2022-08-05T22:06:52.759Z,21.76
2022-08-05T22:09:21.582Z,21.65
2022-08-05T22:11:49.201Z,21.41
2022-08-05T22:14:32.955Z,21.25
2022-08-05T22:17:05.009Z,20.99
2022-08-05T22:20:00.467Z,20.75
2022-08-05T22:22:27.117Z,20.76
2022-08-05T22:25:21.373Z,20.73
2022-08-05T22:28:08.359Z,20.71
2022-08-05T22:30:44.329Z,20.65
2022-08-05T22:33:55.428Z,20.59
2022-08-05T22:36:11.490Z,20.53
2022-08-05T22:38:42.660Z,20.59
2022-08-05T22:41:10.307Z,20.52
2022-08-05T22:43:38.152Z,20.47
2022-08-05T22:46:12.021Z,20.39
2022-08-05T22:48:40.113Z,20.39
2022-08-05T22:51:08.081Z,20.24
2022-08-05T22:53:42.823Z,20.10
2022-08-05T22:56:17.005Z,20.11
2022-08-05T22:58:43.951Z,20.11
2022-08-05T23:01:10.647Z,20.01
2022-08-05T23:03:58.062Z,19.97
2022-08-05T23:06:26.398Z,20.07
2022-08-05T23:08:53.338Z,20.00
2022-08-05T23:11:21.141Z,19.87
2022-08-05T23:13:51.509Z,19.82
2022-08-05T23:16:38.575Z,19.80
2022-08-05T23:19:10.742Z,19.77
2022-08-05T23:21:52.464Z,19.58
2022-08-05T23:24:21.125Z,19.44
2022-08-05T23:26:49.180Z,19.42
2022-08-05T23:29:16.443Z,19.46
2022-08-05T23:31:46.082Z,19.31
2022-08-05T23:34:16.229Z,19.26
2022-08-05T23:36:51.547Z,19.29
2022-08-05T23:39:32.062Z,19.24
2022-08-05T23:42:09.771Z,19.08
2022-08-05T23:44:41.331Z,19.08
2022-08-05T23:47:14.550Z,19.07
2022-08-05T23:49:46.268Z,18.91
2022-08-05T23:52:32.641Z,18.79
2022-08-05T23:55:09.254Z,18.78
2022-08-05T23:57:37.712Z,18.75
